Time;durP1;ratioP1;P1;durP2;ratioP2;P2;SDS_P1;SDS_P2;PMS_P1;PMS_P2;Temp;Humidity;BMP_temperature;BMP_pressure;BME280_temperature;BME280_humidity;BME280_pressure;Samples;Min_cycle;Max_cycle;Signal;HPM_P1;HPM_P2
2021/07/04 00:02:03;;;;;;;13.75;8.80;;;;;;;;;;3582168;40;20068;-63
2021/07/04 00:04:28;;;;;;;10.32;7.05;;;;;;;;;;3581820;40;20051;-64
2021/07/04 00:06:54;;;;;;;9.18;6.38;;;;;;;;;;3582004;40;20126;-61
2021/07/04 00:09:20;;;;;;;14.00;6.20;;;;;;;;;;3581516;40;20581;-61
2021/07/04 00:11:46;;;;;;;6.65;5.95;;;;;;;;;;3581774;40;20147;-61
2021/07/04 00:14:11;;;;;;;7.78;6.43;;;;;;;;;;3579519;40;20065;-61
2021/07/04 00:16:37;;;;;;;7.10;6.40;;;;;;;;;;3582286;40;20029;-61
2021/07/04 00:19:02;;;;;;;8.32;6.20;;;;;;;;;;3582992;40;20044;-64
2021/07/04 00:21:28;;;;;;;7.97;6.53;;;;;;;;;;3582486;40;20303;-64
2021/07/04 00:23:54;;;;;;;8.43;6.40;;;;;;;;;;3580300;40;20025;-61
2021/07/04 00:26:19;;;;;;;7.80;6.75;;;;;;;;;;3581722;40;20056;-63
2021/07/04 00:28:45;;;;;;;8.68;6.72;;;;;;;;;;3582248;40;20037;-63
2021/07/04 00:31:11;;;;;;;8.73;6.72;;;;;;;;;;3582899;40;20032;-63
2021/07/04 00:33:36;;;;;;;8.98;6.70;;;;;;;;;;3581024;40;20052;-63
2021/07/04 00:36:04;;;;;;;12.27;6.85;;;;;;;;;;3581536;40;20122;-63
2021/07/04 00:38:29;;;;;;;7.72;6.78;;;;;;;;;;3581847;40;20053;-63
2021/07/04 00:40:55;;;;;;;12.57;7.82;;;;;;;;;;3582682;40;20033;-62
2021/07/04 00:43:21;;;;;;;8.80;7.22;;;;;;;;;;3580688;40;20044;-62
2021/07/04 00:45:46;;;;;;;10.70;7.43;;;;;;;;;;3582070;40;20385;-62
2021/07/04 00:48:13;;;;;;;12.77;6.97;;;;;;;;;;3581249;40;20048;-62
2021/07/04 00:50:39;;;;;;;9.57;6.80;;;;;;;;;;3581105;40;20506;-62
2021/07/04 00:53:06;;;;;;;9.68;7.45;;;;;;;;;;3583044;40;20057;-62
2021/07/04 00:55:32;;;;;;;11.57;7.65;;;;;;;;;;3575465;40;20384;-62
2021/07/04 00:57:58;;;;;;;10.57;7.18;;;;;;;;;;3583912;40;20414;-62
2021/07/04 01:00:28;;;;;;;8.32;7.30;;;;;;;;;;3580154;40;20092;-61
2021/07/04 01:02:54;;;;;;;8.18;7.38;;;;;;;;;;3583294;40;20078;-62
2021/07/04 01:05:25;;;;;;;8.95;7.03;;;;;;;;;;3584414;40;20024;-61
2021/07/04 01:07:50;;;;;;;8.85;6.95;;;;;;;;;;3582881;40;20122;-62
2021/07/04 01:10:19;;;;;;;11.80;7.18;;;;;;;;;;3581835;40;20095;-61
2021/07/04 01:12:47;;;;;;;9.20;7.03;;;;;;;;;;3584698;40;20040;-62
2021/07/04 01:15:17;;;;;;;12.02;7.82;;;;;;;;;;3583763;40;20104;-63
2021/07/04 01:17:44;;;;;;;11.33;7.50;;;;;;;;;;3582541;40;20032;-62
2021/07/04 01:20:11;;;;;;;9.63;7.40;;;;;;;;;;3581440;40;20032;-62
2021/07/04 01:22:40;;;;;;;7.63;6.82;;;;;;;;;;3583961;40;20122;-62
2021/07/04 01:25:09;;;;;;;8.75;7.05;;;;;;;;;;3583661;40;20029;-62
2021/07/04 01:27:35;;;;;;;9.68;7.63;;;;;;;;;;3583427;40;20155;-61
2021/07/04 01:30:01;;;;;;;12.85;7.32;;;;;;;;;;3583312;40;20121;-61
2021/07/04 01:32:26;;;;;;;7.50;6.70;;;;;;;;;;3583134;40;20291;-61
2021/07/04 01:34:52;;;;;;;11.45;6.93;;;;;;;;;;3582230;40;20053;-62
2021/07/04 01:37:17;;;;;;;12.63;7.28;;;;;;;;;;3583560;40;20324;-62
2021/07/04 01:39:43;;;;;;;8.85;6.13;;;;;;;;;;3583639;40;20069;-62
2021/07/04 01:42:08;;;;;;;9.68;6.95;;;;;;;;;;3581907;40;20137;-62
2021/07/04 01:44:34;;;;;;;8.05;6.97;;;;;;;;;;3577482;40;20446;-62
2021/07/04 01:46:59;;;;;;;8.13;6.65;;;;;;;;;;3583342;40;20044;-62
2021/07/04 01:49:25;;;;;;;8.30;6.63;;;;;;;;;;3581502;40;20056;-62
2021/07/04 01:51:53;;;;;;;8.02;6.28;;;;;;;;;;3577989;40;20078;-61
2021/07/04 01:54:19;;;;;;;10.32;6.70;;;;;;;;;;3584888;40;20608;-62
2021/07/04 01:56:44;;;;;;;7.45;6.60;;;;;;;;;;3574315;40;20138;-62
2021/07/04 01:59:10;;;;;;;9.07;6.78;;;;;;;;;;3582953;40;20040;-62
2021/07/04 02:01:35;;;;;;;9.00;6.82;;;;;;;;;;3583687;40;20074;-62
2021/07/04 02:04:01;;;;;;;8.65;6.88;;;;;;;;;;3582779;40;20037;-61
2021/07/04 02:06:26;;;;;;;8.13;6.40;;;;;;;;;;3583493;40;20049;-61
2021/07/04 02:08:52;;;;;;;6.85;6.13;;;;;;;;;;3583746;40;20044;-61
2021/07/04 02:11:17;;;;;;;7.10;6.05;;;;;;;;;;3582883;40;20029;-61
2021/07/04 02:13:43;;;;;;;7.75;6.65;;;;;;;;;;3583082;40;20053;-62
2021/07/04 02:16:08;;;;;;;7.97;6.60;;;;;;;;;;3582338;40;20048;-62
2021/07/04 02:18:33;;;;;;;8.50;6.90;;;;;;;;;;3582640;40;20069;-62
2021/07/04 02:20:59;;;;;;;8.25;6.35;;;;;;;;;;3585194;40;20028;-63
2021/07/04 02:23:28;;;;;;;9.85;7.95;;;;;;;;;;3582187;40;20037;-63
2021/07/04 02:25:56;;;;;;;6.97;6.38;;;;;;;;;;3581992;40;20268;-63
2021/07/04 02:28:23;;;;;;;7.43;6.50;;;;;;;;;;3581685;40;20470;-63
2021/07/04 02:30:52;;;;;;;7.30;6.07;;;;;;;;;;3573650;40;20045;-63
2021/07/04 02:33:19;;;;;;;9.00;6.60;;;;;;;;;;3582674;40;20064;-63
2021/07/04 02:35:48;;;;;;;6.43;5.80;;;;;;;;;;3581375;40;20243;-63
2021/07/04 02:38:13;;;;;;;8.25;7.20;;;;;;;;;;3580742;40;20029;-62
2021/07/04 02:40:40;;;;;;;8.52;6.57;;;;;;;;;;3576950;40;20040;-61
2021/07/04 02:43:07;;;;;;;7.13;6.25;;;;;;;;;;3581202;40;20115;-62
2021/07/04 02:45:33;;;;;;;6.85;6.15;;;;;;;;;;3583072;40;20431;-64
2021/07/04 02:47:58;;;;;;;7.65;6.30;;;;;;;;;;3582408;40;20044;-64
2021/07/04 02:50:24;;;;;;;7.32;6.40;;;;;;;;;;3582364;40;20375;-62
2021/07/04 02:52:54;;;;;;;8.75;6.57;;;;;;;;;;3583241;40;20048;-62
2021/07/04 02:55:21;;;;;;;9.55;6.47;;;;;;;;;;3582630;40;20033;-62
2021/07/04 02:57:47;;;;;;;9.57;6.88;;;;;;;;;;3580823;40;20157;-62
2021/07/04 03:00:16;;;;;;;8.13;6.53;;;;;;;;;;3580746;40;20530;-62
2021/07/04 03:02:41;;;;;;;8.30;6.85;;;;;;;;;;3581423;40;20091;-62
2021/07/04 03:05:09;;;;;;;7.40;6.57;;;;;;;;;;3583235;40;20036;-62
2021/07/04 03:07:35;;;;;;;8.27;7.00;;;;;;;;;;3583858;40;20033;-62
2021/07/04 03:10:01;;;;;;;11.48;6.38;;;;;;;;;;3583760;40;20073;-62
2021/07/04 03:12:27;;;;;;;7.72;6.93;;;;;;;;;;3576451;40;20276;-63
2021/07/04 03:14:52;;;;;;;8.23;6.75;;;;;;;;;;3582012;40;20121;-62
2021/07/04 03:17:18;;;;;;;7.10;6.20;;;;;;;;;;3581664;40;20449;-62
2021/07/04 03:19:43;;;;;;;12.57;6.97;;;;;;;;;;3581030;40;20032;-62
2021/07/04 03:22:09;;;;;;;8.57;7.18;;;;;;;;;;3582061;40;20028;-62
2021/07/04 03:24:34;;;;;;;8.57;7.50;;;;;;;;;;3581223;40;20126;-62
2021/07/04 03:26:59;;;;;;;9.00;6.95;;;;;;;;;;3581871;40;20060;-62
2021/07/04 03:29:25;;;;;;;8.77;7.85;;;;;;;;;;3581530;40;20048;-62
2021/07/04 03:31:50;;;;;;;7.95;7.07;;;;;;;;;;3572689;40;20052;-62
2021/07/04 03:34:16;;;;;;;8.68;7.00;;;;;;;;;;3582435;40;20163;-63
2021/07/04 03:36:42;;;;;;;9.73;6.95;;;;;;;;;;3584106;40;20048;-62
2021/07/04 03:39:07;;;;;;;9.00;7.45;;;;;;;;;;3582158;40;20025;-62
2021/07/04 03:41:33;;;;;;;8.07;7.22;;;;;;;;;;3583991;40;20486;-63
2021/07/04 03:44:00;;;;;;;8.25;7.20;;;;;;;;;;3581899;40;20032;-62
2021/07/04 03:46:26;;;;;;;10.43;8.38;;;;;;;;;;3582032;40;20036;-63
2021/07/04 03:48:52;;;;;;;8.90;7.32;;;;;;;;;;3582928;40;20075;-62
2021/07/04 03:51:17;;;;;;;10.23;7.10;;;;;;;;;;3582832;40;20391;-63
2021/07/04 03:53:43;;;;;;;9.40;6.95;;;;;;;;;;3582220;40;20052;-62
2021/07/04 03:56:09;;;;;;;9.82;7.78;;;;;;;;;;3582087;40;20057;-62
2021/07/04 03:58:34;;;;;;;9.65;7.82;;;;;;;;;;3580540;40;20076;-62
2021/07/04 04:01:00;;;;;;;9.63;7.65;;;;;;;;;;3583493;40;20040;-63
2021/07/04 04:03:25;;;;;;;12.07;8.10;;;;;;;;;;3581640;40;20501;-62
2021/07/04 04:05:50;;;;;;;11.57;7.93;;;;;;;;;;3579873;40;20028;-63
2021/07/04 04:08:16;;;;;;;10.40;7.40;;;;;;;;;;3581324;40;20029;-62
2021/07/04 04:10:41;;;;;;;11.32;8.18;;;;;;;;;;3581534;40;20065;-62
2021/07/04 04:13:07;;;;;;;9.00;8.10;;;;;;;;;;3572200;40;20132;-64
2021/07/04 04:15:32;;;;;;;9.57;6.93;;;;;;;;;;3581229;40;20045;-62
2021/07/04 04:17:58;;;;;;;9.77;7.43;;;;;;;;;;3583644;40;20102;-62
2021/07/04 04:20:25;;;;;;;11.63;7.68;;;;;;;;;;3581973;40;20092;-62
2021/07/04 04:22:50;;;;;;;9.02;7.88;;;;;;;;;;3581437;40;20406;-62
2021/07/04 04:25:16;;;;;;;10.20;7.03;;;;;;;;;;3581733;40;20025;-63
2021/07/04 04:27:41;;;;;;;9.45;7.45;;;;;;;;;;3581238;40;20051;-62
2021/07/04 04:30:07;;;;;;;10.23;7.18;;;;;;;;;;3577638;40;20425;-62
2021/07/04 04:32:33;;;;;;;9.27;7.45;;;;;;;;;;3583663;40;20061;-62
2021/07/04 04:34:58;;;;;;;8.93;7.88;;;;;;;;;;3584464;40;20032;-63
2021/07/04 04:37:24;;;;;;;9.55;7.93;;;;;;;;;;3584386;40;20041;-62
2021/07/04 04:39:49;;;;;;;9.20;7.88;;;;;;;;;;3582556;40;20092;-62
2021/07/04 04:42:15;;;;;;;10.82;6.90;;;;;;;;;;3581787;40;20073;-62
2021/07/04 04:44:40;;;;;;;10.10;7.47;;;;;;;;;;3584215;40;20276;-62
2021/07/04 04:47:06;;;;;;;8.75;7.57;;;;;;;;;;3582716;40;20347;-62
2021/07/04 04:49:33;;;;;;;9.75;7.53;;;;;;;;;;3582444;40;20346;-62
2021/07/04 04:51:58;;;;;;;9.52;8.10;;;;;;;;;;3583769;40;20282;-62
2021/07/04 04:54:24;;;;;;;12.57;8.68;;;;;;;;;;3581867;40;20044;-62
2021/07/04 04:56:49;;;;;;;10.13;8.70;;;;;;;;;;3583247;40;20029;-62
2021/07/04 04:59:15;;;;;;;8.95;7.90;;;;;;;;;;3583855;40;20475;-62
2021/07/04 05:01:41;;;;;;;9.13;8.23;;;;;;;;;;3583268;40;20365;-62
2021/07/04 05:04:07;;;;;;;9.82;8.07;;;;;;;;;;3573358;40;20032;-62
2021/07/04 05:06:32;;;;;;;9.00;7.90;;;;;;;;;;3583034;40;20037;-62
2021/07/04 05:08:58;;;;;;;9.10;8.20;;;;;;;;;;3584139;40;20387;-62
2021/07/04 05:11:23;;;;;;;9.35;8.18;;;;;;;;;;3583000;40;20025;-62
2021/07/04 05:13:49;;;;;;;13.15;7.60;;;;;;;;;;3583531;40;20040;-60
2021/07/04 05:16:14;;;;;;;9.55;8.40;;;;;;;;;;3584517;40;20077;-62
2021/07/04 05:18:40;;;;;;;9.00;7.53;;;;;;;;;;3583186;40;20571;-62
2021/07/04 05:21:05;;;;;;;9.18;7.55;;;;;;;;;;3581924;40;20033;-62
2021/07/04 05:23:31;;;;;;;8.32;7.53;;;;;;;;;;3582981;40;20053;-62
2021/07/04 05:25:58;;;;;;;8.55;7.30;;;;;;;;;;3582937;40;20044;-62
2021/07/04 05:28:28;;;;;;;8.75;7.53;;;;;;;;;;3582810;40;20054;-62
2021/07/04 05:30:55;;;;;;;10.95;7.80;;;;;;;;;;3581972;40;20040;-62
2021/07/04 05:33:21;;;;;;;15.48;9.20;;;;;;;;;;3582495;40;20035;-62
2021/07/04 05:35:47;;;;;;;9.70;8.07;;;;;;;;;;3582839;40;20581;-62
2021/07/04 05:38:19;;;;;;;8.80;7.68;;;;;;;;;;3583794;40;20044;-62
2021/07/04 05:40:49;;;;;;;9.85;7.47;;;;;;;;;;3582663;40;20040;-61
2021/07/04 05:43:15;;;;;;;9.05;7.68;;;;;;;;;;3582829;40;20029;-62
2021/07/04 05:45:40;;;;;;;7.90;6.97;;;;;;;;;;3583386;40;22001;-62
2021/07/04 05:48:06;;;;;;;10.27;8.35;;;;;;;;;;3585083;40;20129;-62
2021/07/04 05:50:32;;;;;;;11.55;8.50;;;;;;;;;;3582571;40;20037;-62
2021/07/04 05:52:57;;;;;;;10.73;8.68;;;;;;;;;;3583501;40;20279;-62
2021/07/04 05:55:23;;;;;;;8.82;7.93;;;;;;;;;;3583671;40;20364;-62
2021/07/04 05:57:48;;;;;;;9.15;8.15;;;;;;;;;;3583909;40;20341;-63
2021/07/04 06:00:14;;;;;;;9.20;8.00;;;;;;;;;;3584382;40;20041;-62
2021/07/04 06:02:41;;;;;;;11.55;8.85;;;;;;;;;;3583551;40;20040;-62
2021/07/04 06:05:07;;;;;;;12.10;7.70;;;;;;;;;;3582273;40;20056;-62
2021/07/04 06:07:34;;;;;;;8.60;7.68;;;;;;;;;;3583348;40;20249;-62
2021/07/04 06:09:59;;;;;;;9.27;8.18;;;;;;;;;;3582746;40;20119;-63
2021/07/04 06:12:25;;;;;;;9.90;8.05;;;;;;;;;;3584418;40;20044;-62
2021/07/04 06:14:50;;;;;;;10.65;7.78;;;;;;;;;;3580626;40;20272;-62
2021/07/04 06:17:15;;;;;;;9.18;7.93;;;;;;;;;;3582665;40;20044;-62
2021/07/04 06:19:41;;;;;;;10.60;7.97;;;;;;;;;;3582837;40;20101;-62
2021/07/04 06:22:06;;;;;;;9.95;8.63;;;;;;;;;;3583352;40;20060;-61
2021/07/04 06:24:32;;;;;;;10.55;8.02;;;;;;;;;;3583901;40;20516;-62
2021/07/04 06:26:58;;;;;;;11.80;8.85;;;;;;;;;;3581823;40;20044;-62
2021/07/04 06:29:23;;;;;;;11.23;7.57;;;;;;;;;;3581887;40;20044;-62
2021/07/04 06:31:50;;;;;;;10.88;8.07;;;;;;;;;;3577601;40;20033;-62
2021/07/04 06:34:15;;;;;;;10.93;8.15;;;;;;;;;;3584218;40;20085;-62
2021/07/04 06:36:41;;;;;;;10.23;8.07;;;;;;;;;;3583627;40;20040;-62
2021/07/04 06:39:06;;;;;;;9.35;8.40;;;;;;;;;;3581069;40;20053;-62
2021/07/04 06:41:32;;;;;;;13.85;7.35;;;;;;;;;;3582568;40;20392;-62
2021/07/04 06:44:00;;;;;;;8.82;7.93;;;;;;;;;;3576099;40;20047;-62
2021/07/04 06:46:25;;;;;;;12.02;8.20;;;;;;;;;;3585493;40;20113;-61
2021/07/04 06:48:50;;;;;;;9.82;7.70;;;;;;;;;;3582650;40;20354;-61
2021/07/04 06:51:16;;;;;;;8.00;7.10;;;;;;;;;;3584259;40;20086;-62
2021/07/04 06:53:41;;;;;;;9.75;6.88;;;;;;;;;;3582037;40;20056;-62
2021/07/04 06:56:07;;;;;;;7.63;6.53;;;;;;;;;;3581850;40;20045;-62
2021/07/04 06:58:33;;;;;;;12.88;7.35;;;;;;;;;;3582713;40;20276;-60
2021/07/04 07:00:58;;;;;;;11.00;7.85;;;;;;;;;;3580450;40;20392;-60
2021/07/04 07:03:24;;;;;;;8.18;7.32;;;;;;;;;;3580369;40;20399;-61
2021/07/04 07:05:49;;;;;;;11.40;7.05;;;;;;;;;;3582416;40;20044;-61
2021/07/04 07:08:14;;;;;;;8.57;7.15;;;;;;;;;;3582556;40;20040;-61
2021/07/04 07:10:40;;;;;;;9.55;7.53;;;;;;;;;;3579011;40;20072;-62
2021/07/04 07:13:06;;;;;;;9.60;7.47;;;;;;;;;;3581684;40;20041;-61
2021/07/04 07:15:32;;;;;;;10.82;7.15;;;;;;;;;;3583705;40;20040;-61
2021/07/04 07:17:58;;;;;;;8.43;6.60;;;;;;;;;;3582352;40;20470;-61
2021/07/04 07:20:24;;;;;;;8.85;7.75;;;;;;;;;;3583512;40;20122;-60
2021/07/04 07:22:50;;;;;;;12.18;7.15;;;;;;;;;;3583436;40;20116;-61
2021/07/04 07:25:16;;;;;;;9.65;7.18;;;;;;;;;;3585663;40;20113;-61
2021/07/04 07:27:42;;;;;;;7.50;6.43;;;;;;;;;;3585036;40;20060;-62
2021/07/04 07:30:10;;;;;;;8.88;6.55;;;;;;;;;;3583922;40;20037;-61
2021/07/04 07:32:36;;;;;;;8.90;6.80;;;;;;;;;;3584598;40;20080;-60
2021/07/04 07:35:07;;;;;;;11.98;9.57;;;;;;;;;;3583198;40;20033;-61
2021/07/04 07:37:33;;;;;;;11.23;9.90;;;;;;;;;;3574423;40;20041;-61
2021/07/04 07:39:59;;;;;;;10.45;7.90;;;;;;;;;;3572629;40;20091;-62
2021/07/04 07:42:24;;;;;;;17.73;13.77;;;;;;;;;;3583851;40;20268;-61
2021/07/04 07:44:50;;;;;;;10.52;7.60;;;;;;;;;;3581313;40;20437;-62
2021/07/04 07:47:15;;;;;;;7.30;6.60;;;;;;;;;;3584146;40;20047;-62
2021/07/04 07:49:41;;;;;;;11.55;8.73;;;;;;;;;;3582742;40;20033;-62
2021/07/04 07:52:07;;;;;;;8.75;7.40;;;;;;;;;;3583632;40;20099;-62
2021/07/04 07:54:32;;;;;;;8.43;6.70;;;;;;;;;;3582086;40;20093;-62
2021/07/04 07:57:01;;;;;;;7.90;7.05;;;;;;;;;;3580866;40;20045;-62
2021/07/04 07:59:27;;;;;;;7.37;6.53;;;;;;;;;;3582980;40;20296;-60
2021/07/04 08:01:53;;;;;;;10.73;7.68;;;;;;;;;;3581916;40;20606;-61
2021/07/04 08:04:18;;;;;;;7.65;6.47;;;;;;;;;;3580917;40;20029;-61
2021/07/04 08:06:44;;;;;;;8.73;6.80;;;;;;;;;;3581846;40;20206;-61
2021/07/04 08:09:09;;;;;;;8.70;6.68;;;;;;;;;;3583230;40;20276;-61
2021/07/04 08:11:35;;;;;;;8.88;6.57;;;;;;;;;;3583563;40;20115;-61
2021/07/04 08:14:00;;;;;;;7.45;6.22;;;;;;;;;;3583040;40;20033;-61
2021/07/04 08:16:26;;;;;;;7.55;6.45;;;;;;;;;;3581804;40;20351;-61
2021/07/04 08:18:51;;;;;;;8.07;6.30;;;;;;;;;;3581272;40;20123;-62
2021/07/04 08:21:17;;;;;;;7.60;6.75;;;;;;;;;;3582621;40;20061;-61
2021/07/04 08:23:43;;;;;;;9.43;6.47;;;;;;;;;;3583732;40;20513;-62
2021/07/04 08:26:08;;;;;;;6.80;6.10;;;;;;;;;;3582362;40;20049;-61
2021/07/04 08:28:34;;;;;;;7.65;5.97;;;;;;;;;;3582560;40;20033;-62
2021/07/04 08:30:59;;;;;;;6.78;5.97;;;;;;;;;;3583321;40;20254;-61
2021/07/04 08:33:25;;;;;;;7.57;6.60;;;;;;;;;;3583468;40;20293;-61
2021/07/04 08:35:50;;;;;;;7.80;6.60;;;;;;;;;;3579318;40;20044;-61
2021/07/04 08:38:16;;;;;;;11.00;7.00;;;;;;;;;;3580034;40;20048;-61
2021/07/04 08:40:42;;;;;;;9.18;6.50;;;;;;;;;;3581051;40;20036;-62
2021/07/04 08:43:08;;;;;;;10.30;7.30;;;;;;;;;;3581775;40;20036;-61
2021/07/04 08:45:37;;;;;;;7.88;6.40;;;;;;;;;;3584117;40;20041;-61
2021/07/04 08:48:05;;;;;;;11.45;7.07;;;;;;;;;;3582313;40;20033;-61
2021/07/04 08:50:30;;;;;;;8.93;7.70;;;;;;;;;;3582223;40;20024;-61
2021/07/04 08:52:59;;;;;;;9.85;6.55;;;;;;;;;;3583100;40;20069;-61
2021/07/04 08:55:24;;;;;;;8.60;7.47;;;;;;;;;;3582371;40;20040;-61
2021/07/04 08:57:50;;;;;;;9.05;7.10;;;;;;;;;;3582225;40;20084;-62
2021/07/04 09:00:17;;;;;;;9.38;7.20;;;;;;;;;;3581262;40;20072;-61
2021/07/04 09:02:42;;;;;;;9.55;7.07;;;;;;;;;;3582236;40;20525;-62
2021/07/04 09:05:12;;;;;;;11.65;6.93;;;;;;;;;;3581493;40;20040;-62
2021/07/04 09:07:39;;;;;;;11.67;7.47;;;;;;;;;;3579915;40;20041;-62
2021/07/04 09:10:08;;;;;;;8.60;7.70;;;;;;;;;;3581098;40;20033;-62
2021/07/04 09:12:51;;;;;;;8.43;7.43;;;;;;;;;;3582070;40;20036;-61
2021/07/04 09:15:26;;;;;;;14.20;12.27;;;;;;;;;;3584674;40;20037;-61
2021/07/04 09:17:53;;;;;;;9.38;8.38;;;;;;;;;;3584400;40;20327;-61
2021/07/04 09:20:28;;;;;;;9.55;8.13;;;;;;;;;;3582409;40;20085;-62
2021/07/04 09:22:54;;;;;;;9.65;7.63;;;;;;;;;;3583304;40;20029;-61
2021/07/04 09:25:27;;;;;;;9.10;7.75;;;;;;;;;;3583517;40;20032;-61
2021/07/04 09:28:07;;;;;;;8.30;7.22;;;;;;;;;;3582823;40;20599;-61
2021/07/04 09:30:56;;;;;;;9.48;8.15;;;;;;;;;;3583085;40;20040;-61
2021/07/04 09:33:23;;;;;;;8.20;7.38;;;;;;;;;;3575340;40;20038;-61
2021/07/04 09:36:02;;;;;;;8.98;7.30;;;;;;;;;;3581824;40;20037;-62
2021/07/04 09:38:33;;;;;;;7.95;7.15;;;;;;;;;;3583074;40;20045;-61
2021/07/04 09:40:59;;;;;;;8.68;7.53;;;;;;;;;;3583004;40;20047;-62
2021/07/04 09:43:28;;;;;;;9.27;6.95;;;;;;;;;;3581625;40;20519;-64
2021/07/04 09:45:55;;;;;;;9.98;7.70;;;;;;;;;;3582622;40;20037;-61
2021/07/04 09:48:30;;;;;;;8.50;7.07;;;;;;;;;;3583430;40;20040;-61
2021/07/04 09:51:14;;;;;;;8.70;7.32;;;;;;;;;;3581634;40;20037;-62
2021/07/04 09:53:45;;;;;;;10.68;8.95;;;;;;;;;;3585078;40;20044;-61
2021/07/04 09:56:15;;;;;;;10.57;7.78;;;;;;;;;;3581933;40;20045;-61
2021/07/04 09:58:43;;;;;;;8.98;7.93;;;;;;;;;;3581946;40;20097;-61
2021/07/04 10:01:10;;;;;;;12.95;8.60;;;;;;;;;;3582438;40;20395;-62
2021/07/04 10:03:43;;;;;;;9.68;7.68;;;;;;;;;;3582191;40;20037;-62
2021/07/04 10:06:10;;;;;;;10.02;8.43;;;;;;;;;;3583271;40;20130;-62
2021/07/04 10:08:36;;;;;;;11.55;7.38;;;;;;;;;;3583872;40;20370;-62
2021/07/04 10:11:08;;;;;;;12.60;8.10;;;;;;;;;;3583469;40;20045;-62
2021/07/04 10:13:38;;;;;;;8.55;7.57;;;;;;;;;;3582505;40;20035;-62
2021/07/04 10:16:07;;;;;;;;;;;;;;;;;;3583099;40;20032;-62
2021/07/04 10:18:34;;;;;;;8.13;7.30;;;;;;;;;;3581734;40;20312;-62
2021/07/04 10:20:59;;;;;;;8.25;7.35;;;;;;;;;;3582613;40;20454;-62
2021/07/04 10:23:27;;;;;;;8.23;7.30;;;;;;;;;;3583357;40;20040;-62
2021/07/04 10:25:57;;;;;;;8.45;7.57;;;;;;;;;;3581149;40;20036;-62
2021/07/04 10:28:29;;;;;;;;;;;;;;;;;;3582349;40;20040;-61
2021/07/04 10:30:56;;;;;;;8.07;7.28;;;;;;;;;;3582028;40;20283;-62
2021/07/04 10:33:26;;;;;;;9.05;7.47;;;;;;;;;;3583555;40;20052;-62
2021/07/04 10:36:00;;;;;;;7.57;6.70;;;;;;;;;;3583746;40;20060;-61
2021/07/04 10:38:49;;;;;;;11.35;7.22;;;;;;;;;;3583829;40;20259;-62
2021/07/04 10:41:24;;;;;;;11.32;7.55;;;;;;;;;;3584166;40;20129;-62
2021/07/04 10:43:58;;;;;;;8.70;7.57;;;;;;;;;;3583981;40;20044;-62
2021/07/04 10:46:43;;;;;;;8.93;7.30;;;;;;;;;;3573632;40;20025;-62
2021/07/04 10:49:19;;;;;;;8.25;7.15;;;;;;;;;;3581303;40;20069;-61
2021/07/04 10:52:10;;;;;;;13.65;7.40;;;;;;;;;;3577644;40;20065;-61
2021/07/04 10:54:38;;;;;;;7.40;5.78;;;;;;;;;;3582801;40;20396;-61
2021/07/04 10:57:09;;;;;;;7.22;6.07;;;;;;;;;;3583207;40;20036;-62
2021/07/04 10:59:50;;;;;;;7.45;6.07;;;;;;;;;;3572217;40;20028;-61
2021/07/04 11:02:50;;;;;;;8.48;6.85;;;;;;;;;;3583669;40;20045;-61
2021/07/04 11:05:30;;;;;;;7.22;5.82;;;;;;;;;;3581920;40;20098;-61
2021/07/04 11:07:56;;;;;;;9.18;5.93;;;;;;;;;;3583100;40;20036;-61
2021/07/04 11:10:23;;;;;;;7.95;7.07;;;;;;;;;;3583205;40;20041;-60
2021/07/04 11:13:10;;;;;;;7.68;6.72;;;;;;;;;;3572550;40;20299;-61
2021/07/04 11:15:40;;;;;;;8.32;7.25;;;;;;;;;;3576850;40;20037;-62
2021/07/04 11:18:08;;;;;;;10.70;7.22;;;;;;;;;;3583232;40;20045;-61
2021/07/04 11:20:40;;;;;;;8.43;7.47;;;;;;;;;;3583310;40;20055;-61
2021/07/04 11:23:10;;;;;;;11.27;10.15;;;;;;;;;;3582016;40;20037;-63
2021/07/04 11:25:39;;;;;;;;;;;;;;;;;;3581706;40;20418;-61
2021/07/04 11:28:16;;;;;;;7.97;7.28;;;;;;;;;;3584274;40;20156;-61
2021/07/04 11:30:41;;;;;;;7.75;7.03;;;;;;;;;;3582789;40;20040;-60
2021/07/04 11:33:30;;;;;;;6.97;6.28;;;;;;;;;;3582265;40;20061;-59
2021/07/04 11:36:01;;;;;;;10.13;7.93;;;;;;;;;;3581191;40;20041;-60
2021/07/04 11:38:29;;;;;;;8.25;7.32;;;;;;;;;;3581297;40;20372;-60
2021/07/04 11:40:55;;;;;;;11.00;7.40;;;;;;;;;;3576391;40;20052;-60
2021/07/04 11:43:26;;;;;;;8.30;7.25;;;;;;;;;;3582359;40;20028;-61
2021/07/04 11:46:03;;;;;;;8.10;6.45;;;;;;;;;;3581889;40;20132;-59
2021/07/04 11:48:50;;;;;;;9.02;6.47;;;;;;;;;;3583879;40;20142;-60
2021/07/04 11:51:27;;;;;;;11.82;6.78;;;;;;;;;;3582295;40;20602;-60
2021/07/04 11:53:56;;;;;;;8.80;6.30;;;;;;;;;;3582224;40;20580;-60
2021/07/04 11:56:22;;;;;;;6.68;6.00;;;;;;;;;;3582413;40;20045;-60
2021/07/04 11:58:48;;;;;;;7.30;5.82;;;;;;;;;;3583577;40;20281;-61
2021/07/04 12:01:20;;;;;;;7.80;5.75;;;;;;;;;;3583988;40;20052;-61
2021/07/04 12:03:50;;;;;;;6.28;4.95;;;;;;;;;;3583429;40;20044;-61
2021/07/04 12:06:16;;;;;;;4.85;4.22;;;;;;;;;;3581405;40;20049;-60
2021/07/04 12:09:05;;;;;;;7.10;4.22;;;;;;;;;;3581614;40;20036;-60
2021/07/04 12:11:47;;;;;;;5.90;4.28;;;;;;;;;;3582637;40;20048;-61
2021/07/04 12:14:32;;;;;;;5.20;3.95;;;;;;;;;;3581372;40;20052;-59
2021/07/04 12:17:16;;;;;;;5.40;4.15;;;;;;;;;;3583420;40;20049;-60
2021/07/04 12:19:43;;;;;;;5.68;4.63;;;;;;;;;;3581161;40;20061;-59
2021/07/04 12:22:12;;;;;;;6.32;4.78;;;;;;;;;;3584126;40;20562;-60
2021/07/04 12:24:43;;;;;;;6.80;4.40;;;;;;;;;;3580675;40;20085;-59
2021/07/04 12:27:09;;;;;;;5.47;4.07;;;;;;;;;;3583645;40;20043;-59
2021/07/04 12:30:05;;;;;;;9.23;4.72;;;;;;;;;;3580854;40;20045;-59
2021/07/04 12:32:37;;;;;;;5.85;4.78;;;;;;;;;;3581443;40;20051;-60
2021/07/04 12:35:05;;;;;;;6.30;4.30;;;;;;;;;;3581755;40;20060;-60
2021/07/04 12:37:32;;;;;;;5.30;3.30;;;;;;;;;;3581556;40;20051;-59
2021/07/04 12:40:10;;;;;;;5.88;4.00;;;;;;;;;;3581927;40;20033;-60
2021/07/04 12:42:36;;;;;;;7.40;4.00;;;;;;;;;;3583524;40;20045;-59
2021/07/04 12:45:05;;;;;;;5.05;3.65;;;;;;;;;;3583221;40;20048;-61
2021/07/04 12:47:31;;;;;;;5.93;3.67;;;;;;;;;;3582935;40;20107;-60
2021/07/04 12:50:02;;;;;;;3.88;2.90;;;;;;;;;;3581985;40;20302;-60
2021/07/04 12:52:28;;;;;;;4.93;3.78;;;;;;;;;;3583518;40;20036;-60
2021/07/04 12:54:54;;;;;;;4.85;3.42;;;;;;;;;;3582987;40;20068;-60
2021/07/04 12:57:30;;;;;;;7.20;3.67;;;;;;;;;;3582784;40;20135;-59
2021/07/04 13:00:15;;;;;;;7.10;4.05;;;;;;;;;;3584517;40;20066;-60
2021/07/04 13:02:45;;;;;;;4.43;3.53;;;;;;;;;;3581346;40;20041;-61
2021/07/04 13:05:12;;;;;;;4.97;3.45;;;;;;;;;;3582806;40;20052;-61
2021/07/04 13:07:42;;;;;;;4.90;3.53;;;;;;;;;;3583280;40;20092;-61
2021/07/04 13:10:08;;;;;;;4.55;3.38;;;;;;;;;;3574125;40;20044;-61
2021/07/04 13:12:40;;;;;;;5.40;3.33;;;;;;;;;;3582614;40;20053;-61
2021/07/04 13:15:08;;;;;;;9.70;3.53;;;;;;;;;;3584721;40;20287;-61
2021/07/04 13:17:44;;;;;;;6.70;4.57;;;;;;;;;;3573956;40;20732;-61
2021/07/04 13:20:12;;;;;;;6.25;4.78;;;;;;;;;;3583789;40;20044;-61
2021/07/04 13:22:40;;;;;;;6.28;4.10;;;;;;;;;;3580780;40;20141;-62
2021/07/04 13:25:18;;;;;;;4.95;3.50;;;;;;;;;;3581230;40;20065;-62
2021/07/04 13:27:48;;;;;;;6.10;3.42;;;;;;;;;;3584083;40;20129;-62
2021/07/04 13:30:21;;;;;;;6.97;3.63;;;;;;;;;;3579771;40;20122;-62
2021/07/04 13:33:04;;;;;;;4.60;3.38;;;;;;;;;;3581650;40;20044;-62
2021/07/04 13:35:32;;;;;;;6.00;3.75;;;;;;;;;;3580962;40;20109;-62
2021/07/04 13:38:03;;;;;;;5.50;3.75;;;;;;;;;;3580786;40;20061;-62
2021/07/04 13:40:30;;;;;;;6.15;3.70;;;;;;;;;;3582299;40;20048;-62
2021/07/04 13:42:56;;;;;;;4.85;3.35;;;;;;;;;;3583346;40;20056;-62
2021/07/04 13:45:34;;;;;;;5.45;4.03;;;;;;;;;;3580841;40;20438;-62
2021/07/04 13:48:07;;;;;;;9.13;3.97;;;;;;;;;;3581963;40;20041;-63
2021/07/04 13:50:33;;;;;;;5.10;4.00;;;;;;;;;;3582991;40;20057;-62
2021/07/04 13:52:59;;;;;;;5.80;3.78;;;;;;;;;;3583552;40;20041;-63
2021/07/04 13:55:25;;;;;;;5.65;4.40;;;;;;;;;;3583267;40;20041;-63
2021/07/04 13:57:51;;;;;;;5.45;4.30;;;;;;;;;;3580786;40;20041;-62
2021/07/04 14:00:17;;;;;;;5.47;4.10;;;;;;;;;;3584217;40;20051;-62
2021/07/04 14:02:43;;;;;;;4.47;3.65;;;;;;;;;;3582655;40;20052;-62
2021/07/04 14:05:09;;;;;;;5.55;4.70;;;;;;;;;;3583618;40;20055;-61
2021/07/04 14:07:34;;;;;;;8.82;4.28;;;;;;;;;;3580558;40;20437;-61
2021/07/04 14:10:00;;;;;;;5.13;4.15;;;;;;;;;;3581765;40;20122;-61
2021/07/04 14:12:25;;;;;;;4.95;4.15;;;;;;;;;;3582658;40;20033;-61
2021/07/04 14:14:51;;;;;;;5.10;3.85;;;;;;;;;;3582598;40;20052;-61
2021/07/04 14:17:16;;;;;;;5.22;4.00;;;;;;;;;;3582701;40;20039;-61
2021/07/04 14:19:45;;;;;;;6.38;3.63;;;;;;;;;;3584252;40;20142;-61
2021/07/04 14:22:11;;;;;;;14.07;3.67;;;;;;;;;;3583816;40;20356;-61
2021/07/04 14:24:36;;;;;;;5.10;3.78;;;;;;;;;;3581154;40;20476;-61
2021/07/04 14:27:04;;;;;;;5.13;4.07;;;;;;;;;;3573651;40;20032;-61
2021/07/04 14:29:29;;;;;;;4.85;3.78;;;;;;;;;;3583338;40;20118;-61
2021/07/04 14:31:55;;;;;;;4.65;3.67;;;;;;;;;;3581507;40;20060;-61
2021/07/04 14:34:20;;;;;;;5.32;3.58;;;;;;;;;;3581069;40;20056;-61
2021/07/04 14:36:46;;;;;;;5.47;3.55;;;;;;;;;;3583728;40;20368;-59
2021/07/04 14:39:12;;;;;;;5.00;3.33;;;;;;;;;;3582245;40;20040;-60
2021/07/04 14:41:39;;;;;;;5.50;3.33;;;;;;;;;;3581599;40;20032;-60
2021/07/04 14:44:06;;;;;;;5.78;3.25;;;;;;;;;;3583889;40;20033;-60
2021/07/04 14:46:32;;;;;;;3.17;2.40;;;;;;;;;;3583868;40;20394;-60